sensor_id;sensor_type;location;lat;lon;timestamp;P1;durP1;ratioP1;P2;durP2;ratioP2
14203;SDS011;7185;51.854;6.622;2023-12-28T00:01:18;6.10;;;2.20;;
14203;SDS011;7185;51.854;6.622;2023-12-28T00:03:51;4.53;;;2.08;;
14203;SDS011;7185;51.854;6.622;2023-12-28T00:06:24;4.80;;;1.90;;
14203;SDS011;7185;51.854;6.622;2023-12-28T00:08:56;4.82;;;1.98;;
14203;SDS011;7185;51.854;6.622;2023-12-28T00:11:27;4.60;;;2.25;;
14203;SDS011;7185;51.854;6.622;2023-12-28T00:13:59;4.05;;;2.22;;
14203;SDS011;7185;51.854;6.622;2023-12-28T00:16:31;4.45;;;2.30;;
14203;SDS011;7185;51.854;6.622;2023-12-28T00:19:04;4.00;;;2.10;;
14203;SDS011;7185;51.854;6.622;2023-12-28T00:21:37;6.25;;;2.30;;
14203;SDS011;7185;51.854;6.622;2023-12-28T00:24:10;6.07;;;2.35;;
14203;SDS011;7185;51.854;6.622;2023-12-28T00:26:41;3.45;;;1.98;;
14203;SDS011;7185;51.854;6.622;2023-12-28T00:29:13;4.32;;;2.25;;
14203;SDS011;7185;51.854;6.622;2023-12-28T00:31:45;3.85;;;2.25;;
14203;SDS011;7185;51.854;6.622;2023-12-28T00:34:16;5.25;;;2.35;;
14203;SDS011;7185;51.854;6.622;2023-12-28T00:36:49;6.65;;;2.58;;
14203;SDS011;7185;51.854;6.622;2023-12-28T00:39:21;3.90;;;2.28;;
14203;SDS011;7185;51.854;6.622;2023-12-28T00:41:53;4.93;;;2.33;;
14203;SDS011;7185;51.854;6.622;2023-12-28T00:44:25;4.18;;;2.22;;
14203;SDS011;7185;51.854;6.622;2023-12-28T00:46:56;4.43;;;2.40;;
14203;SDS011;7185;51.854;6.622;2023-12-28T00:49:28;4.35;;;2.42;;
14203;SDS011;7185;51.854;6.622;2023-12-28T00:52:01;4.57;;;2.25;;
14203;SDS011;7185;51.854;6.622;2023-12-28T00:54:34;3.90;;;2.13;;
14203;SDS011;7185;51.854;6.622;2023-12-28T00:57:07;5.47;;;2.42;;
14203;SDS011;7185;51.854;6.622;2023-12-28T00:59:38;5.00;;;2.38;;
14203;SDS011;7185;51.854;6.622;2023-12-28T01:02:10;3.78;;;2.35;;
14203;SDS011;7185;51.854;6.622;2023-12-28T01:04:42;6.35;;;2.55;;
14203;SDS011;7185;51.854;6.622;2023-12-28T01:07:15;3.65;;;2.25;;
14203;SDS011;7185;51.854;6.622;2023-12-28T01:09:47;7.45;;;2.80;;
14203;SDS011;7185;51.854;6.622;2023-12-28T01:12:18;4.32;;;2.50;;
14203;SDS011;7185;51.854;6.622;2023-12-28T01:14:50;5.07;;;2.40;;
14203;SDS011;7185;51.854;6.622;2023-12-28T01:17:22;4.82;;;2.17;;
14203;SDS011;7185;51.854;6.622;2023-12-28T01:19:53;4.88;;;2.80;;
14203;SDS011;7185;51.854;6.622;2023-12-28T01:22:26;5.28;;;2.58;;
14203;SDS011;7185;51.854;6.622;2023-12-28T01:24:58;4.18;;;2.38;;
14203;SDS011;7185;51.854;6.622;2023-12-28T01:27:30;4.82;;;2.55;;
14203;SDS011;7185;51.854;6.622;2023-12-28T01:30:02;5.88;;;2.60;;
14203;SDS011;7185;51.854;6.622;2023-12-28T01:32:34;7.90;;;2.50;;
14203;SDS011;7185;51.854;6.622;2023-12-28T01:35:06;5.07;;;2.40;;
14203;SDS011;7185;51.854;6.622;2023-12-28T01:37:39;4.57;;;2.53;;
14203;SDS011;7185;51.854;6.622;2023-12-28T01:40:11;5.05;;;2.33;;
14203;SDS011;7185;51.854;6.622;2023-12-28T01:42:43;6.00;;;2.65;;
14203;SDS011;7185;51.854;6.622;2023-12-28T01:45:17;4.93;;;2.67;;
14203;SDS011;7185;51.854;6.622;2023-12-28T01:47:48;7.05;;;2.67;;
14203;SDS011;7185;51.854;6.622;2023-12-28T01:50:21;4.53;;;2.70;;
14203;SDS011;7185;51.854;6.622;2023-12-28T01:52:57;4.57;;;2.72;;
14203;SDS011;7185;51.854;6.622;2023-12-28T01:55:31;5.80;;;2.90;;
14203;SDS011;7185;51.854;6.622;2023-12-28T01:58:05;5.45;;;2.38;;
14203;SDS011;7185;51.854;6.622;2023-12-28T02:00:37;5.10;;;3.17;;
14203;SDS011;7185;51.854;6.622;2023-12-28T02:03:08;7.57;;;2.72;;
14203;SDS011;7185;51.854;6.622;2023-12-28T02:05:41;5.30;;;2.88;;
14203;SDS011;7185;51.854;6.622;2023-12-28T02:08:14;4.70;;;2.50;;
14203;SDS011;7185;51.854;6.622;2023-12-28T02:10:46;6.25;;;2.80;;
14203;SDS011;7185;51.854;6.622;2023-12-28T02:13:18;6.65;;;3.20;;
14203;SDS011;7185;51.854;6.622;2023-12-28T02:15:51;5.95;;;2.85;;
14203;SDS011;7185;51.854;6.622;2023-12-28T02:18:29;3.97;;;2.90;;
14203;SDS011;7185;51.854;6.622;2023-12-28T02:21:06;5.72;;;2.63;;
14203;SDS011;7185;51.854;6.622;2023-12-28T02:23:40;5.50;;;2.67;;
14203;SDS011;7185;51.854;6.622;2023-12-28T02:26:19;4.85;;;2.92;;
14203;SDS011;7185;51.854;6.622;2023-12-28T02:28:50;6.15;;;2.92;;
14203;SDS011;7185;51.854;6.622;2023-12-28T02:31:24;7.55;;;3.25;;
14203;SDS011;7185;51.854;6.622;2023-12-28T02:34:04;7.20;;;3.03;;
14203;SDS011;7185;51.854;6.622;2023-12-28T02:36:40;6.53;;;3.10;;
14203;SDS011;7185;51.854;6.622;2023-12-28T02:39:16;4.50;;;2.72;;
14203;SDS011;7185;51.854;6.622;2023-12-28T02:41:50;6.07;;;3.20;;
14203;SDS011;7185;51.854;6.622;2023-12-28T02:44:22;5.18;;;2.83;;
14203;SDS011;7185;51.854;6.622;2023-12-28T02:46:54;4.93;;;2.85;;
14203;SDS011;7185;51.854;6.622;2023-12-28T02:49:26;6.95;;;2.80;;
14203;SDS011;7185;51.854;6.622;2023-12-28T02:51:57;6.50;;;2.60;;
14203;SDS011;7185;51.854;6.622;2023-12-28T02:54:29;6.50;;;2.60;;
14203;SDS011;7185;51.854;6.622;2023-12-28T02:57:03;9.45;;;3.35;;
14203;SDS011;7185;51.854;6.622;2023-12-28T02:59:35;7.28;;;2.92;;
14203;SDS011;7185;51.854;6.622;2023-12-28T03:02:06;5.47;;;2.83;;
14203;SDS011;7185;51.854;6.622;2023-12-28T03:04:38;6.07;;;2.78;;
14203;SDS011;7185;51.854;6.622;2023-12-28T03:07:10;5.68;;;2.95;;
14203;SDS011;7185;51.854;6.622;2023-12-28T03:09:41;6.22;;;2.80;;
14203;SDS011;7185;51.854;6.622;2023-12-28T03:12:14;7.20;;;3.05;;
14203;SDS011;7185;51.854;6.622;2023-12-28T03:14:46;5.90;;;3.47;;
14203;SDS011;7185;51.854;6.622;2023-12-28T03:17:18;6.88;;;3.40;;
14203;SDS011;7185;51.854;6.622;2023-12-28T03:19:50;5.47;;;3.10;;
14203;SDS011;7185;51.854;6.622;2023-12-28T03:22:21;6.53;;;2.90;;
14203;SDS011;7185;51.854;6.622;2023-12-28T03:24:53;6.75;;;3.10;;
14203;SDS011;7185;51.854;6.622;2023-12-28T03:27:29;4.65;;;3.13;;
14203;SDS011;7185;51.854;6.622;2023-12-28T03:30:00;8.30;;;3.38;;
14203;SDS011;7185;51.854;6.622;2023-12-28T03:32:32;6.57;;;3.22;;
14203;SDS011;7185;51.854;6.622;2023-12-28T03:35:04;7.30;;;3.45;;
14203;SDS011;7185;51.854;6.622;2023-12-28T03:37:37;6.68;;;3.45;;
14203;SDS011;7185;51.854;6.622;2023-12-28T03:40:09;7.35;;;3.00;;
14203;SDS011;7185;51.854;6.622;2023-12-28T03:42:43;7.25;;;3.17;;
14203;SDS011;7185;51.854;6.622;2023-12-28T03:45:15;6.65;;;3.72;;
14203;SDS011;7185;51.854;6.622;2023-12-28T03:47:47;10.77;;;3.53;;
14203;SDS011;7185;51.854;6.622;2023-12-28T03:50:18;6.10;;;3.35;;
14203;SDS011;7185;51.854;6.622;2023-12-28T03:52:50;8.25;;;3.20;;
14203;SDS011;7185;51.854;6.622;2023-12-28T03:55:21;8.75;;;3.35;;
14203;SDS011;7185;51.854;6.622;2023-12-28T03:57:55;7.15;;;3.40;;
14203;SDS011;7185;51.854;6.622;2023-12-28T04:00:26;6.22;;;3.38;;
14203;SDS011;7185;51.854;6.622;2023-12-28T04:02:58;8.43;;;3.83;;
14203;SDS011;7185;51.854;6.622;2023-12-28T04:05:30;6.78;;;3.60;;
14203;SDS011;7185;51.854;6.622;2023-12-28T04:08:01;10.70;;;3.60;;
14203;SDS011;7185;51.854;6.622;2023-12-28T04:10:34;9.82;;;3.55;;
14203;SDS011;7185;51.854;6.622;2023-12-28T04:13:09;7.00;;;3.50;;
14203;SDS011;7185;51.854;6.622;2023-12-28T04:15:41;7.80;;;3.55;;
14203;SDS011;7185;51.854;6.622;2023-12-28T04:18:13;8.25;;;3.50;;
14203;SDS011;7185;51.854;6.622;2023-12-28T04:20:44;7.43;;;3.40;;
14203;SDS011;7185;51.854;6.622;2023-12-28T04:23:16;7.55;;;3.30;;
14203;SDS011;7185;51.854;6.622;2023-12-28T04:25:48;10.70;;;3.97;;
14203;SDS011;7185;51.854;6.622;2023-12-28T04:28:21;7.85;;;3.50;;
14203;SDS011;7185;51.854;6.622;2023-12-28T04:30:52;5.28;;;3.38;;
14203;SDS011;7185;51.854;6.622;2023-12-28T04:33:24;9.00;;;3.90;;
14203;SDS011;7185;51.854;6.622;2023-12-28T04:35:56;8.00;;;3.60;;
14203;SDS011;7185;51.854;6.622;2023-12-28T04:38:27;5.32;;;3.50;;
14203;SDS011;7185;51.854;6.622;2023-12-28T04:40:59;6.63;;;3.40;;
14203;SDS011;7185;51.854;6.622;2023-12-28T04:43:33;6.07;;;3.28;;
14203;SDS011;7185;51.854;6.622;2023-12-28T04:46:04;5.57;;;3.47;;
14203;SDS011;7185;51.854;6.622;2023-12-28T04:48:36;9.15;;;3.58;;
14203;SDS011;7185;51.854;6.622;2023-12-28T04:51:08;7.05;;;2.88;;
14203;SDS011;7185;51.854;6.622;2023-12-28T04:53:40;5.85;;;3.22;;
14203;SDS011;7185;51.854;6.622;2023-12-28T04:56:12;4.90;;;3.05;;
14203;SDS011;7185;51.854;6.622;2023-12-28T04:58:45;9.90;;;3.30;;
14203;SDS011;7185;51.854;6.622;2023-12-28T05:01:17;9.32;;;3.55;;
14203;SDS011;7185;51.854;6.622;2023-12-28T05:03:48;7.72;;;3.20;;
14203;SDS011;7185;51.854;6.622;2023-12-28T05:06:20;6.43;;;2.90;;
14203;SDS011;7185;51.854;6.622;2023-12-28T05:08:52;6.80;;;2.97;;
14203;SDS011;7185;51.854;6.622;2023-12-28T05:11:24;8.73;;;2.97;;
14203;SDS011;7185;51.854;6.622;2023-12-28T05:13:57;9.45;;;3.40;;
14203;SDS011;7185;51.854;6.622;2023-12-28T05:16:28;7.80;;;3.10;;
14203;SDS011;7185;51.854;6.622;2023-12-28T05:19:00;9.88;;;3.08;;
14203;SDS011;7185;51.854;6.622;2023-12-28T05:21:32;8.40;;;2.92;;
14203;SDS011;7185;51.854;6.622;2023-12-28T05:24:04;10.50;;;2.92;;
14203;SDS011;7185;51.854;6.622;2023-12-28T05:26:36;8.85;;;3.13;;
14203;SDS011;7185;51.854;6.622;2023-12-28T05:29:09;6.93;;;3.20;;
14203;SDS011;7185;51.854;6.622;2023-12-28T05:31:41;9.23;;;2.72;;
14203;SDS011;7185;51.854;6.622;2023-12-28T05:34:12;6.40;;;2.70;;
14203;SDS011;7185;51.854;6.622;2023-12-28T05:36:44;9.25;;;3.00;;
14203;SDS011;7185;51.854;6.622;2023-12-28T05:39:16;10.77;;;3.63;;
14203;SDS011;7185;51.854;6.622;2023-12-28T05:41:48;5.97;;;3.25;;
14203;SDS011;7185;51.854;6.622;2023-12-28T05:44:22;4.65;;;2.35;;
14203;SDS011;7185;51.854;6.622;2023-12-28T05:46:53;8.25;;;3.10;;
14203;SDS011;7185;51.854;6.622;2023-12-28T05:49:25;8.23;;;2.90;;
14203;SDS011;7185;51.854;6.622;2023-12-28T05:51:58;5.32;;;2.50;;
14203;SDS011;7185;51.854;6.622;2023-12-28T05:54:30;8.93;;;2.90;;
14203;SDS011;7185;51.854;6.622;2023-12-28T05:57:01;7.03;;;2.70;;
14203;SDS011;7185;51.854;6.622;2023-12-28T05:59:34;9.90;;;2.95;;
14203;SDS011;7185;51.854;6.622;2023-12-28T06:02:09;8.02;;;2.97;;
14203;SDS011;7185;51.854;6.622;2023-12-28T06:04:40;7.28;;;3.03;;
14203;SDS011;7185;51.854;6.622;2023-12-28T06:07:12;7.18;;;2.70;;
14203;SDS011;7185;51.854;6.622;2023-12-28T06:09:44;14.35;;;3.70;;
14203;SDS011;7185;51.854;6.622;2023-12-28T06:12:16;7.40;;;2.67;;
14203;SDS011;7185;51.854;6.622;2023-12-28T06:14:49;9.18;;;2.80;;
14203;SDS011;7185;51.854;6.622;2023-12-28T06:17:21;12.25;;;2.60;;
14203;SDS011;7185;51.854;6.622;2023-12-28T06:19:52;7.70;;;2.70;;
14203;SDS011;7185;51.854;6.622;2023-12-28T06:22:24;8.25;;;3.13;;
14203;SDS011;7185;51.854;6.622;2023-12-28T06:24:57;6.88;;;3.15;;
14203;SDS011;7185;51.854;6.622;2023-12-28T06:27:29;7.78;;;2.65;;
14203;SDS011;7185;51.854;6.622;2023-12-28T06:30:02;6.38;;;2.78;;
14203;SDS011;7185;51.854;6.622;2023-12-28T06:32:34;6.00;;;2.70;;
14203;SDS011;7185;51.854;6.622;2023-12-28T06:35:06;10.70;;;2.65;;
14203;SDS011;7185;51.854;6.622;2023-12-28T06:37:38;12.30;;;2.65;;
14203;SDS011;7185;51.854;6.622;2023-12-28T06:40:11;6.13;;;2.95;;
14203;SDS011;7185;51.854;6.622;2023-12-28T06:42:43;9.75;;;2.33;;
14203;SDS011;7185;51.854;6.622;2023-12-28T06:45:16;10.18;;;2.60;;
14203;SDS011;7185;51.854;6.622;2023-12-28T06:47:48;10.82;;;2.60;;
14203;SDS011;7185;51.854;6.622;2023-12-28T06:50:19;5.43;;;2.50;;
14203;SDS011;7185;51.854;6.622;2023-12-28T06:52:51;8.02;;;2.47;;
14203;SDS011;7185;51.854;6.622;2023-12-28T06:55:23;8.82;;;2.90;;
14203;SDS011;7185;51.854;6.622;2023-12-28T06:57:54;8.15;;;2.78;;
14203;SDS011;7185;51.854;6.622;2023-12-28T07:00:27;9.25;;;2.70;;
14203;SDS011;7185;51.854;6.622;2023-12-28T07:02:59;11.20;;;2.90;;
14203;SDS011;7185;51.854;6.622;2023-12-28T07:05:31;10.65;;;2.60;;
14203;SDS011;7185;51.854;6.622;2023-12-28T07:08:02;9.68;;;2.25;;
14203;SDS011;7185;51.854;6.622;2023-12-28T07:10:35;9.75;;;2.47;;
14203;SDS011;7185;51.854;6.622;2023-12-28T07:13:07;7.28;;;2.40;;
14203;SDS011;7185;51.854;6.622;2023-12-28T07:15:40;8.07;;;2.58;;
14203;SDS011;7185;51.854;6.622;2023-12-28T07:18:11;10.10;;;2.60;;
14203;SDS011;7185;51.854;6.622;2023-12-28T07:20:43;10.30;;;3.05;;
14203;SDS011;7185;51.854;6.622;2023-12-28T07:23:15;11.13;;;2.58;;
14203;SDS011;7185;51.854;6.622;2023-12-28T07:25:47;8.82;;;2.58;;
14203;SDS011;7185;51.854;6.622;2023-12-28T07:28:19;11.93;;;2.90;;
14203;SDS011;7185;51.854;6.622;2023-12-28T07:30:52;6.70;;;2.42;;
14203;SDS011;7185;51.854;6.622;2023-12-28T07:33:24;11.52;;;3.08;;
14203;SDS011;7185;51.854;6.622;2023-12-28T07:35:57;7.50;;;2.65;;
14203;SDS011;7185;51.854;6.622;2023-12-28T07:38:29;10.15;;;2.90;;
14203;SDS011;7185;51.854;6.622;2023-12-28T07:41:01;14.43;;;2.88;;
14203;SDS011;7185;51.854;6.622;2023-12-28T07:43:33;8.27;;;2.55;;
14203;SDS011;7185;51.854;6.622;2023-12-28T07:46:07;12.13;;;2.42;;
14203;SDS011;7185;51.854;6.622;2023-12-28T07:48:39;10.25;;;2.60;;
14203;SDS011;7185;51.854;6.622;2023-12-28T07:51:12;15.48;;;2.65;;
14203;SDS011;7185;51.854;6.622;2023-12-28T07:53:44;10.82;;;2.78;;
14203;SDS011;7185;51.854;6.622;2023-12-28T07:56:16;16.35;;;3.35;;
14203;SDS011;7185;51.854;6.622;2023-12-28T07:58:47;13.43;;;2.70;;
14203;SDS011;7185;51.854;6.622;2023-12-28T08:01:21;10.50;;;2.28;;
14203;SDS011;7185;51.854;6.622;2023-12-28T08:03:53;11.10;;;2.92;;
14203;SDS011;7185;51.854;6.622;2023-12-28T08:06:25;11.35;;;2.25;;
14203;SDS011;7185;51.854;6.622;2023-12-28T08:08:56;6.88;;;2.17;;
14203;SDS011;7185;51.854;6.622;2023-12-28T08:11:29;8.60;;;2.70;;
14203;SDS011;7185;51.854;6.622;2023-12-28T08:14:01;12.13;;;3.00;;
14203;SDS011;7185;51.854;6.622;2023-12-28T08:16:34;10.13;;;2.75;;
14203;SDS011;7185;51.854;6.622;2023-12-28T08:19:06;10.35;;;2.33;;
14203;SDS011;7185;51.854;6.622;2023-12-28T08:21:38;13.68;;;2.80;;
14203;SDS011;7185;51.854;6.622;2023-12-28T08:24:09;10.20;;;2.95;;
14203;SDS011;7185;51.854;6.622;2023-12-28T08:26:41;11.48;;;2.20;;
14203;SDS011;7185;51.854;6.622;2023-12-28T08:29:13;12.73;;;3.05;;
14203;SDS011;7185;51.854;6.622;2023-12-28T08:31:46;16.30;;;2.78;;
14203;SDS011;7185;51.854;6.622;2023-12-28T08:34:18;12.23;;;2.15;;
14203;SDS011;7185;51.854;6.622;2023-12-28T08:36:49;10.32;;;2.17;;
14203;SDS011;7185;51.854;6.622;2023-12-28T08:39:22;12.88;;;3.13;;
14203;SDS011;7185;51.854;6.622;2023-12-28T08:41:54;15.20;;;3.30;;
14203;SDS011;7185;51.854;6.622;2023-12-28T08:44:26;11.52;;;2.40;;
14203;SDS011;7185;51.854;6.622;2023-12-28T08:46:59;14.55;;;3.45;;
14203;SDS011;7185;51.854;6.622;2023-12-28T08:49:32;11.43;;;2.40;;
14203;SDS011;7185;51.854;6.622;2023-12-28T08:52:07;9.85;;;2.28;;
14203;SDS011;7185;51.854;6.622;2023-12-28T08:54:40;14.20;;;2.85;;
14203;SDS011;7185;51.854;6.622;2023-12-28T08:57:12;8.30;;;2.70;;
14203;SDS011;7185;51.854;6.622;2023-12-28T08:59:43;13.57;;;2.75;;
14203;SDS011;7185;51.854;6.622;2023-12-28T09:02:16;11.00;;;2.80;;
14203;SDS011;7185;51.854;6.622;2023-12-28T09:04:48;12.25;;;2.75;;
14203;SDS011;7185;51.854;6.622;2023-12-28T09:07:20;11.07;;;2.92;;
14203;SDS011;7185;51.854;6.622;2023-12-28T09:09:52;14.20;;;2.78;;
14203;SDS011;7185;51.854;6.622;2023-12-28T09:12:23;15.18;;;3.55;;
14203;SDS011;7185;51.854;6.622;2023-12-28T09:14:55;12.13;;;3.35;;
14203;SDS011;7185;51.854;6.622;2023-12-28T09:17:28;14.20;;;2.80;;
14203;SDS011;7185;51.854;6.622;2023-12-28T09:20:00;12.23;;;2.97;;
14203;SDS011;7185;51.854;6.622;2023-12-28T09:22:33;16.20;;;3.20;;
14203;SDS011;7185;51.854;6.622;2023-12-28T09:25:05;13.00;;;2.85;;
14203;SDS011;7185;51.854;6.622;2023-12-28T09:27:38;9.85;;;2.60;;
14203;SDS011;7185;51.854;6.622;2023-12-28T09:30:10;14.20;;;3.03;;
14203;SDS011;7185;51.854;6.622;2023-12-28T09:32:43;22.52;;;2.70;;
14203;SDS011;7185;51.854;6.622;2023-12-28T09:35:15;14.98;;;2.85;;
14203;SDS011;7185;51.854;6.622;2023-12-28T09:37:46;15.65;;;3.92;;
14203;SDS011;7185;51.854;6.622;2023-12-28T09:40:18;11.90;;;2.92;;
14203;SDS011;7185;51.854;6.622;2023-12-28T09:42:51;8.50;;;2.63;;
14203;SDS011;7185;51.854;6.622;2023-12-28T09:45:28;12.25;;;2.92;;
14203;SDS011;7185;51.854;6.622;2023-12-28T09:48:01;12.38;;;2.60;;
14203;SDS011;7185;51.854;6.622;2023-12-28T09:50:34;13.30;;;3.55;;
14203;SDS011;7185;51.854;6.622;2023-12-28T09:53:06;15.05;;;3.00;;
14203;SDS011;7185;51.854;6.622;2023-12-28T09:55:38;17.48;;;3.45;;
14203;SDS011;7185;51.854;6.622;2023-12-28T09:58:10;10.70;;;2.92;;
14203;SDS011;7185;51.854;6.622;2023-12-28T10:00:45;13.18;;;2.63;;
14203;SDS011;7185;51.854;6.622;2023-12-28T10:03:19;6.68;;;2.30;;
14203;SDS011;7185;51.854;6.622;2023-12-28T10:05:50;13.98;;;3.13;;
14203;SDS011;7185;51.854;6.622;2023-12-28T10:08:22;17.60;;;2.95;;
14203;SDS011;7185;51.854;6.622;2023-12-28T10:10:54;13.68;;;2.67;;
14203;SDS011;7185;51.854;6.622;2023-12-28T10:13:29;13.00;;;3.13;;
14203;SDS011;7185;51.854;6.622;2023-12-28T10:16:05;16.90;;;3.40;;
14203;SDS011;7185;51.854;6.622;2023-12-28T10:18:41;17.45;;;3.72;;
14203;SDS011;7185;51.854;6.622;2023-12-28T10:21:13;14.30;;;2.42;;
14203;SDS011;7185;51.854;6.622;2023-12-28T10:23:45;11.73;;;2.70;;
14203;SDS011;7185;51.854;6.622;2023-12-28T10:26:17;17.13;;;2.65;;
14203;SDS011;7185;51.854;6.622;2023-12-28T10:28:49;13.63;;;2.38;;
14203;SDS011;7185;51.854;6.622;2023-12-28T10:31:21;13.95;;;2.97;;
14203;SDS011;7185;51.854;6.622;2023-12-28T10:33:55;12.23;;;3.15;;
14203;SDS011;7185;51.854;6.622;2023-12-28T10:36:29;14.10;;;2.75;;
14203;SDS011;7185;51.854;6.622;2023-12-28T10:39:02;13.27;;;2.67;;
14203;SDS011;7185;51.854;6.622;2023-12-28T10:41:36;17.60;;;2.75;;
14203;SDS011;7185;51.854;6.622;2023-12-28T10:44:10;14.02;;;2.60;;
14203;SDS011;7185;51.854;6.622;2023-12-28T10:46:47;17.25;;;2.80;;
14203;SDS011;7185;51.854;6.622;2023-12-28T10:49:24;12.40;;;2.78;;
14203;SDS011;7185;51.854;6.622;2023-12-28T10:51:56;21.88;;;3.55;;
14203;SDS011;7185;51.854;6.622;2023-12-28T10:54:32;15.45;;;3.15;;
14203;SDS011;7185;51.854;6.622;2023-12-28T10:57:16;10.10;;;3.03;;
14203;SDS011;7185;51.854;6.622;2023-12-28T10:59:59;12.13;;;2.60;;
14203;SDS011;7185;51.854;6.622;2023-12-28T11:02:38;12.30;;;2.42;;
14203;SDS011;7185;51.854;6.622;2023-12-28T11:05:12;17.20;;;2.80;;
14203;SDS011;7185;51.854;6.622;2023-12-28T11:07:47;13.02;;;2.60;;
14203;SDS011;7185;51.854;6.622;2023-12-28T11:10:22;13.52;;;3.35;;
14203;SDS011;7185;51.854;6.622;2023-12-28T11:12:56;16.67;;;3.35;;
14203;SDS011;7185;51.854;6.622;2023-12-28T11:15:28;13.95;;;3.53;;
14203;SDS011;7185;51.854;6.622;2023-12-28T11:18:02;14.98;;;2.55;;
14203;SDS011;7185;51.854;6.622;2023-12-28T11:20:35;15.57;;;3.20;;
14203;SDS011;7185;51.854;6.622;2023-12-28T11:23:07;11.18;;;3.13;;
14203;SDS011;7185;51.854;6.622;2023-12-28T11:25:39;16.27;;;2.42;;
14203;SDS011;7185;51.854;6.622;2023-12-28T11:28:11;11.15;;;2.53;;
14203;SDS011;7185;51.854;6.622;2023-12-28T11:30:46;13.63;;;2.75;;
14203;SDS011;7185;51.854;6.622;2023-12-28T11:33:18;10.55;;;3.10;;
14203;SDS011;7185;51.854;6.622;2023-12-28T11:35:52;13.15;;;2.85;;
14203;SDS011;7185;51.854;6.622;2023-12-28T11:38:23;14.35;;;2.90;;
14203;SDS011;7185;51.854;6.622;2023-12-28T11:40:56;20.55;;;3.80;;
14203;SDS011;7185;51.854;6.622;2023-12-28T11:43:28;15.18;;;2.47;;
14203;SDS011;7185;51.854;6.622;2023-12-28T11:46:03;17.17;;;3.40;;
14203;SDS011;7185;51.854;6.622;2023-12-28T11:48:36;19.65;;;3.17;;
14203;SDS011;7185;51.854;6.622;2023-12-28T11:51:09;16.10;;;3.03;;
14203;SDS011;7185;51.854;6.622;2023-12-28T11:53:41;15.80;;;2.60;;
14203;SDS011;7185;51.854;6.622;2023-12-28T11:56:15;12.85;;;2.70;;
14203;SDS011;7185;51.854;6.622;2023-12-28T11:58:47;15.10;;;3.00;;
14203;SDS011;7185;51.854;6.622;2023-12-28T12:01:19;17.02;;;2.75;;
14203;SDS011;7185;51.854;6.622;2023-12-28T12:03:51;10.65;;;2.40;;
14203;SDS011;7185;51.854;6.622;2023-12-28T12:06:24;20.05;;;3.08;;
14203;SDS011;7185;51.854;6.622;2023-12-28T12:08:55;15.80;;;3.10;;
14203;SDS011;7185;51.854;6.622;2023-12-28T12:11:29;17.02;;;3.22;;
14203;SDS011;7185;51.854;6.622;2023-12-28T12:14:01;13.00;;;2.92;;
14203;SDS011;7185;51.854;6.622;2023-12-28T12:16:35;16.75;;;2.88;;
14203;SDS011;7185;51.854;6.622;2023-12-28T12:19:07;18.35;;;2.55;;
14203;SDS011;7185;51.854;6.622;2023-12-28T12:21:40;13.85;;;3.17;;
14203;SDS011;7185;51.854;6.622;2023-12-28T12:24:12;14.32;;;3.28;;
14203;SDS011;7185;51.854;6.622;2023-12-28T12:26:45;14.85;;;2.78;;
14203;SDS011;7185;51.854;6.622;2023-12-28T12:29:17;14.80;;;2.88;;
14203;SDS011;7185;51.854;6.622;2023-12-28T12:31:49;13.40;;;2.88;;
14203;SDS011;7185;51.854;6.622;2023-12-28T12:34:22;15.25;;;2.40;;
14203;SDS011;7185;51.854;6.622;2023-12-28T12:36:55;12.82;;;2.75;;
14203;SDS011;7185;51.854;6.622;2023-12-28T12:39:29;13.65;;;2.50;;
14203;SDS011;7185;51.854;6.622;2023-12-28T12:42:01;16.08;;;3.00;;
14203;SDS011;7185;51.854;6.622;2023-12-28T12:44:34;20.75;;;3.60;;
14203;SDS011;7185;51.854;6.622;2023-12-28T12:47:06;21.00;;;2.83;;
14203;SDS011;7185;51.854;6.622;2023-12-28T12:49:38;10.68;;;2.45;;
14203;SDS011;7185;51.854;6.622;2023-12-28T12:52:11;17.50;;;3.00;;
14203;SDS011;7185;51.854;6.622;2023-12-28T12:54:44;13.07;;;2.45;;
14203;SDS011;7185;51.854;6.622;2023-12-28T12:57:38;17.38;;;3.65;;
14203;SDS011;7185;51.854;6.622;2023-12-28T13:00:11;14.90;;;3.17;;
14203;SDS011;7185;51.854;6.622;2023-12-28T13:02:44;17.15;;;3.20;;
14203;SDS011;7185;51.854;6.622;2023-12-28T13:05:16;18.77;;;3.38;;
14203;SDS011;7185;51.854;6.622;2023-12-28T13:07:50;18.17;;;3.20;;
14203;SDS011;7185;51.854;6.622;2023-12-28T13:10:21;12.40;;;3.10;;
14203;SDS011;7185;51.854;6.622;2023-12-28T13:12:54;14.50;;;3.20;;
14203;SDS011;7185;51.854;6.622;2023-12-28T13:15:25;14.55;;;2.70;;
14203;SDS011;7185;51.854;6.622;2023-12-28T13:17:57;17.38;;;2.72;;
14203;SDS011;7185;51.854;6.622;2023-12-28T13:20:29;17.25;;;3.13;;
14203;SDS011;7185;51.854;6.622;2023-12-28T13:23:03;17.00;;;3.05;;
14203;SDS011;7185;51.854;6.622;2023-12-28T13:25:34;17.70;;;3.83;;
14203;SDS011;7185;51.854;6.622;2023-12-28T13:28:06;13.07;;;3.38;;
14203;SDS011;7185;51.854;6.622;2023-12-28T13:30:38;18.08;;;3.20;;
14203;SDS011;7185;51.854;6.622;2023-12-28T13:33:10;12.13;;;3.25;;
14203;SDS011;7185;51.854;6.622;2023-12-28T13:35:42;14.38;;;3.33;;
14203;SDS011;7185;51.854;6.622;2023-12-28T13:38:15;13.35;;;2.97;;
14203;SDS011;7185;51.854;6.622;2023-12-28T13:40:46;13.57;;;2.92;;
14203;SDS011;7185;51.854;6.622;2023-12-28T13:43:18;23.48;;;4.80;;
14203;SDS011;7185;51.854;6.622;2023-12-28T13:45:50;17.98;;;3.00;;
14203;SDS011;7185;51.854;6.622;2023-12-28T13:48:21;19.10;;;3.50;;
14203;SDS011;7185;51.854;6.622;2023-12-28T13:50:53;14.00;;;3.33;;
14203;SDS011;7185;51.854;6.622;2023-12-28T13:53:27;16.58;;;4.05;;
14203;SDS011;7185;51.854;6.622;2023-12-28T13:55:59;14.77;;;3.58;;
14203;SDS011;7185;51.854;6.622;2023-12-28T13:58:30;17.60;;;3.22;;
14203;SDS011;7185;51.854;6.622;2023-12-28T14:01:02;20.13;;;3.10;;
14203;SDS011;7185;51.854;6.622;2023-12-28T14:03:34;9.13;;;2.65;;
14203;SDS011;7185;51.854;6.622;2023-12-28T14:06:06;19.85;;;3.13;;
14203;SDS011;7185;51.854;6.622;2023-12-28T14:08:40;17.00;;;2.97;;
14203;SDS011;7185;51.854;6.622;2023-12-28T14:11:12;13.02;;;2.83;;
14203;SDS011;7185;51.854;6.622;2023-12-28T14:13:44;12.73;;;3.05;;
14203;SDS011;7185;51.854;6.622;2023-12-28T14:16:19;14.75;;;3.88;;
14203;SDS011;7185;51.854;6.622;2023-12-28T14:18:51;14.88;;;3.70;;
14203;SDS011;7185;51.854;6.622;2023-12-28T14:21:23;16.58;;;3.20;;
14203;SDS011;7185;51.854;6.622;2023-12-28T14:23:57;14.75;;;3.17;;
14203;SDS011;7185;51.854;6.622;2023-12-28T14:26:29;14.02;;;3.20;;
14203;SDS011;7185;51.854;6.622;2023-12-28T14:29:03;15.02;;;3.53;;
14203;SDS011;7185;51.854;6.622;2023-12-28T14:31:37;19.13;;;3.78;;
14203;SDS011;7185;51.854;6.622;2023-12-28T14:34:09;16.83;;;3.67;;
14203;SDS011;7185;51.854;6.622;2023-12-28T14:36:44;18.67;;;3.47;;
14203;SDS011;7185;51.854;6.622;2023-12-28T14:39:21;19.88;;;4.25;;
14203;SDS011;7185;51.854;6.622;2023-12-28T14:41:52;20.60;;;3.83;;
14203;SDS011;7185;51.854;6.622;2023-12-28T14:44:24;16.42;;;3.20;;
14203;SDS011;7185;51.854;6.622;2023-12-28T14:46:56;16.83;;;4.43;;
14203;SDS011;7185;51.854;6.622;2023-12-28T14:49:30;15.43;;;3.00;;
14203;SDS011;7185;51.854;6.622;2023-12-28T14:52:03;17.42;;;3.22;;
14203;SDS011;7185;51.854;6.622;2023-12-28T14:54:36;18.17;;;2.88;;
14203;SDS011;7185;51.854;6.622;2023-12-28T14:57:08;18.55;;;4.03;;
14203;SDS011;7185;51.854;6.622;2023-12-28T14:59:42;13.95;;;3.03;;
14203;SDS011;7185;51.854;6.622;2023-12-28T15:02:13;15.68;;;3.05;;
14203;SDS011;7185;51.854;6.622;2023-12-28T15:04:45;16.25;;;2.95;;
14203;SDS011;7185;51.854;6.622;2023-12-28T15:07:17;12.70;;;3.42;;
14203;SDS011;7185;51.854;6.622;2023-12-28T15:09:51;17.42;;;3.63;;
14203;SDS011;7185;51.854;6.622;2023-12-28T15:12:28;15.27;;;2.97;;
14203;SDS011;7185;51.854;6.622;2023-12-28T15:15:00;16.88;;;3.50;;
14203;SDS011;7185;51.854;6.622;2023-12-28T15:17:32;16.35;;;3.35;;
14203;SDS011;7185;51.854;6.622;2023-12-28T15:20:05;16.77;;;3.28;;
14203;SDS011;7185;51.854;6.622;2023-12-28T15:22:39;11.85;;;2.85;;
14203;SDS011;7185;51.854;6.622;2023-12-28T15:25:12;11.73;;;3.10;;